Airfield :
LOGIN :

Register | Disclaimer

   EN    FR    IT 

 










Legend :    VFR   Marginal VFR   IFR   Intensive IFR   Very Intensive IFR
Visi :
Ceiling :
>= 8 km
>= 3000ft
5 to 8 km
1000 to 3000 ft
1500m to 5 km
500 to 1000 ft
800 to 1500m
200 to 500 ft
< 800m
< 200 ft
Symbols :   Thunderstorms  Fog  Heavy snow  Heavy precipitations  Wind > 20 kt
SIGMETs :     Misc.  Thunderstorms  Icing  Turbulence  Mountain Waves  Volcanic Ashes






- Airport Elevation : 1202 ft
- IATA code : IGS


ETSI - Ingolstadt

CURRENT METAR :
  • 020920Z 20004KT 9999 FEW020TCU BKN100 23/17 Q1013 BLU BLU TEMPO YLO

EXPIRED METARs :
  • 020820Z 27006KT 9999 FEW015 SCT050 BKN110 21/17 Q1013 BLU BLU
  • 020720Z 26008KT 9999 FEW012 SCT060 BKN160 20/17 Q1013 BLU BLU

TAF AMD TAF ETSI
Valid from the 02 at 09:00 until the 02 at 17:00 UTC


020918Z 0209/0217 25008KT 9999 NSW SCT020 BKN060
TEMPO 0210/0215 32015G30KT 3000 +TSRA FEW012 BKN015CB
TEMPO 0215/0217 30012KT 5000 -SHRA SCT012 BKN015TCU



MET'MAP, your aeronautical weather chart ! - Copyright ORBIFLY December 2007 - Disclaimer

ORBIFLY MET'MAP TEAM :

Programming & Development : Alexandra Zaïnal
Concept & original design : Baudouin d'Aumeries
Assistance for programming : Marc-Olivier Méhu
Technical & hardware support : Manuel Goepfert

Contact : metmap@orbifly.com




SOURCES & CREDITS :

   NOAA